Terminal Aerodrome Forecast
Issued by NWS

Home | Current Version | Previous Version | Graphics & Text | Print | Product List | Glossary On
Versions: 1 2 3 4 5 6 7 8 9 10 11 12 13 14 15 16 17 18 19 20 21 22 23 24 25
000
FTUS43 KOAX 162159 AAA
TAFCDR
TAF AMD
KCDR 162159Z 1622/1718 17006KT P6SM SCT050 BKN100
     FM170600 17005KT P6SM BKN020
     FM171200 14004KT P6SM OVC008=

USA.gov is the U.S. government's official web portal to all federal, state and local government web resources and services.